Time;durP1;ratioP1;P1;durP2;ratioP2;P2;SDS_P1;SDS_P2;PMS_P1;PMS_P2;Temp;Humidity;BMP_temperature;BMP_pressure;BME280_temperature;BME280_humidity;BME280_pressure;Samples;Min_cycle;Max_cycle;Signal;HPM_P1;HPM_P2
2021/10/20 00:01:57;;;;;;;25.30;19.25;;;;;;;10.81;100.00;100542.25;5030198;28;20056;-53
2021/10/20 00:04:24;;;;;;;24.23;18.30;;;;;;;10.83;100.00;100529.81;5019072;28;20056;-53
2021/10/20 00:06:51;;;;;;;24.33;18.17;;;;;;;10.81;100.00;100542.25;5029189;28;20167;-52
2021/10/20 00:09:18;;;;;;;26.48;18.58;;;;;;;10.80;100.00;100543.19;5031128;28;20514;-53
2021/10/20 00:11:45;;;;;;;27.42;18.08;;;;;;;10.65;100.00;100516.53;5021203;28;20041;-53
2021/10/20 00:14:11;;;;;;;22.80;17.63;;;;;;;10.72;100.00;100526.75;5029605;28;20056;-53
2021/10/20 00:16:37;;;;;;;22.58;17.35;;;;;;;10.70;100.00;100519.84;5025771;28;20057;-52
2021/10/20 00:19:04;;;;;;;22.17;16.55;;;;;;;10.68;100.00;100517.25;5024300;28;20046;-53
2021/10/20 00:21:30;;;;;;;20.10;16.38;;;;;;;10.69;100.00;100518.97;5019957;28;20499;-53
2021/10/20 00:23:59;;;;;;;20.63;15.85;;;;;;;10.64;100.00;100506.88;5020585;28;20487;-53
2021/10/20 00:26:26;;;;;;;22.75;16.98;;;;;;;10.61;100.00;100504.34;5025142;28;20076;-55
2021/10/20 00:28:52;;;;;;;21.67;16.27;;;;;;;10.57;100.00;100519.50;5026991;28;20048;-53
2021/10/20 00:31:19;;;;;;;21.33;16.33;;;;;;;10.49;100.00;100511.06;5019287;28;20061;-54
2021/10/20 00:33:46;;;;;;;22.63;17.10;;;;;;;10.51;100.00;100512.72;5027163;28;20068;-53
2021/10/20 00:36:12;;;;;;;25.95;17.50;;;;;;;10.46;100.00;100508.53;5026472;28;20052;-54
2021/10/20 00:38:39;;;;;;;22.85;16.88;;;;;;;10.46;100.00;100517.34;5026674;28;20537;-53
2021/10/20 00:41:06;;;;;;;28.02;17.52;;;;;;;10.49;100.00;100519.00;5021395;28;20052;-55
2021/10/20 00:43:32;;;;;;;20.75;16.20;;;;;;;10.47;100.00;100521.72;5022422;28;20779;-54
2021/10/20 00:45:59;;;;;;;26.98;18.38;;;;;;;10.42;100.00;100518.41;5026031;28;20053;-53
2021/10/20 00:48:26;;;;;;;25.08;17.92;;;;;;;10.38;100.00;100522.13;5018700;28;20063;-54
2021/10/20 00:50:52;;;;;;;22.65;18.10;;;;;;;10.39;100.00;100515.88;5021554;28;20064;-53
2021/10/20 00:53:19;;;;;;;24.73;18.83;;;;;;;10.33;100.00;100510.88;5025555;28;20065;-53
2021/10/20 00:55:46;;;;;;;25.58;18.17;;;;;;;10.30;100.00;100508.38;5022925;28;20049;-53
2021/10/20 00:58:13;;;;;;;24.80;17.98;;;;;;;10.26;100.00;100501.47;5023148;28;20045;-53
2021/10/20 01:00:39;;;;;;;23.73;16.95;;;;;;;10.22;100.00;100504.34;5021404;28;20056;-54
2021/10/20 01:03:06;;;;;;;25.25;17.80;;;;;;;10.19;100.00;100500.91;5023641;28;20469;-53
2021/10/20 01:05:34;;;;;;;28.38;18.85;;;;;;;10.17;100.00;100489.50;5027629;28;20044;-54
2021/10/20 01:08:00;;;;;;;26.80;18.40;;;;;;;10.14;100.00;100486.97;5022689;28;20539;-54
2021/10/20 01:10:27;;;;;;;25.23;17.63;;;;;;;10.16;100.00;100487.78;5021291;28;20136;-52
2021/10/20 01:12:54;;;;;;;22.17;16.70;;;;;;;10.14;100.00;100472.88;5021916;28;20053;-52
2021/10/20 01:15:27;;;;;;;22.70;16.67;;;;;;;10.13;100.00;100474.66;5026468;28;20056;-52
2021/10/20 01:17:53;;;;;;;24.50;18.15;;;;;;;10.12;100.00;100467.66;5021666;28;20053;-53
2021/10/20 01:20:32;;;;;;;26.48;19.55;;;;;;;10.13;100.00;100465.88;5022549;28;20123;-52
2021/10/20 01:23:00;;;;;;;26.83;18.35;;;;;;;10.14;100.00;100457.00;5020212;28;20060;-53
2021/10/20 01:25:27;;;;;;;24.60;18.27;;;;;;;10.14;100.00;100459.66;5024076;28;20414;-53
2021/10/20 01:27:53;;;;;;;26.45;19.20;;;;;;;10.15;100.00;100456.09;5028032;28;20549;-53
2021/10/20 01:30:20;;;;;;;25.83;17.48;;;;;;;10.15;100.00;100441.06;5023355;28;20044;-53
2021/10/20 01:32:46;;;;;;;24.33;17.63;;;;;;;10.18;100.00;100442.72;5022555;28;20123;-52
2021/10/20 01:35:13;;;;;;;21.58;16.65;;;;;;;10.19;100.00;100450.63;5023018;28;20409;-52
2021/10/20 01:37:40;;;;;;;25.15;18.30;;;;;;;10.19;100.00;100447.97;5021891;28;20449;-55
2021/10/20 01:40:09;;;;;;;22.58;16.95;;;;;;;10.18;100.00;100448.91;5019288;28;20053;-52
2021/10/20 01:42:35;;;;;;;20.42;16.40;;;;;;;10.02;100.00;100410.78;5022415;28;20046;-52
2021/10/20 01:45:06;;;;;;;25.23;17.20;;;;;;;10.14;100.00;100431.41;5020833;28;20037;-53
2021/10/20 01:47:32;;;;;;;22.33;16.67;;;;;;;10.12;100.00;100430.59;5021774;28;20417;-53
2021/10/20 01:49:59;;;;;;;23.02;16.95;;;;;;;10.06;100.00;100412.38;5024016;28;20049;-53
2021/10/20 01:52:26;;;;;;;23.33;16.83;;;;;;;10.05;100.00;100410.66;5021352;28;20549;-52
2021/10/20 01:54:52;;;;;;;20.08;15.77;;;;;;;10.01;100.00;100414.38;5024642;28;20049;-52
2021/10/20 01:57:18;;;;;;;20.02;16.27;;;;;;;10.01;100.00;100408.22;5018145;28;20045;-52
2021/10/20 01:59:45;;;;;;;20.60;16.38;;;;;;;10.00;100.00;100412.63;5021311;28;20061;-52
2021/10/20 02:02:23;;;;;;;23.48;16.45;;;;;;;9.97;100.00;100401.31;5020073;28;20056;-54
2021/10/20 02:04:50;;;;;;;20.05;15.00;;;;;;;9.94;100.00;100397.03;5026562;28;20180;-52
2021/10/20 02:07:17;;;;;;;20.02;14.95;;;;;;;9.95;100.00;100404.03;5024387;28;20061;-52
2021/10/20 02:09:44;;;;;;;17.67;13.85;;;;;;;9.98;100.00;100390.69;5023245;28;20055;-53
2021/10/20 02:12:11;;;;;;;18.80;14.85;;;;;;;9.98;100.00;100390.69;5019236;28;20056;-53
2021/10/20 02:14:38;;;;;;;19.58;15.27;;;;;;;9.95;100.00;100377.59;5028669;28;20064;-54
2021/10/20 02:17:05;;;;;;;20.15;14.98;;;;;;;9.95;100.00;100374.94;5029362;28;20076;-55
2021/10/20 02:19:32;;;;;;;19.60;14.32;;;;;;;9.97;100.00;100365.16;5026342;28;20057;-53
2021/10/20 02:22:01;;;;;;;19.83;14.30;;;;;;;9.99;100.00;100359.78;5023881;28;21043;-53
2021/10/20 02:24:27;;;;;;;17.92;13.95;;;;;;;9.98;100.00;100366.88;5024150;28;20045;-52
2021/10/20 02:26:54;;;;;;;20.98;14.10;;;;;;;10.01;100.00;100361.44;5028459;28;20049;-52
2021/10/20 02:29:21;;;;;;;21.00;14.57;;;;;;;10.00;100.00;100354.44;5027242;28;20047;-52
2021/10/20 02:31:47;;;;;;;18.33;13.18;;;;;;;9.99;100.00;100365.94;5021411;28;20060;-51
2021/10/20 02:34:15;;;;;;;19.60;14.23;;;;;;;9.95;100.00;100363.50;5025207;28;20052;-53
2021/10/20 02:36:42;;;;;;;18.83;12.90;;;;;;;9.99;100.00;100373.03;5029907;28;20056;-54
2021/10/20 02:39:09;;;;;;;18.80;13.38;;;;;;;9.97;100.00;100370.44;5025162;28;20045;-53
2021/10/20 02:41:36;;;;;;;15.05;12.02;;;;;;;9.97;100.00;100367.78;5028592;28;20061;-53
2021/10/20 02:44:04;;;;;;;17.38;12.85;;;;;;;9.95;100.00;100367.00;5023868;28;20048;-53
2021/10/20 02:46:31;;;;;;;18.98;13.07;;;;;;;9.93;100.00;100355.63;5026488;28;20049;-52
2021/10/20 02:48:58;;;;;;;17.45;12.52;;;;;;;9.94;100.00;100346.78;5026124;28;20060;-51
2021/10/20 02:51:24;;;;;;;17.95;12.32;;;;;;;9.96;100.00;100347.56;5009767;28;20411;-53
2021/10/20 02:53:59;;;;;;;16.67;12.38;;;;;;;9.97;100.00;100346.63;5021463;28;20151;-53
2021/10/20 02:56:26;;;;;;;19.98;12.00;;;;;;;9.99;100.00;100341.28;5026385;28;20071;-52
2021/10/20 02:58:54;;;;;;;16.73;11.75;;;;;;;10.01;100.00;100344.72;5021538;28;20037;-53
2021/10/20 03:01:20;;;;;;;19.35;13.35;;;;;;;10.01;100.00;100336.78;5019635;28;20052;-53
2021/10/20 03:03:47;;;;;;;15.35;11.55;;;;;;;10.02;100.00;100331.44;5016666;28;20053;-54
2021/10/20 03:06:15;;;;;;;17.33;12.82;;;;;;;10.04;100.00;100334.00;5027144;28;20056;-51
2021/10/20 03:08:42;;;;;;;16.00;12.15;;;;;;;10.03;100.00;100343.72;5026090;28;20502;-52
2021/10/20 03:11:08;;;;;;;15.57;12.00;;;;;;;10.04;100.00;100348.09;5023748;28;20502;-52
2021/10/20 03:13:35;;;;;;;14.55;11.18;;;;;;;10.02;100.00;100342.00;5034050;28;21317;-51
2021/10/20 03:16:01;;;;;;;15.15;11.32;;;;;;;9.99;100.00;100338.63;5024957;28;20056;-52
2021/10/20 03:18:28;;;;;;;13.75;11.15;;;;;;;10.00;100.00;100330.63;5038409;28;20126;-53
2021/10/20 03:20:54;;;;;;;14.23;11.30;;;;;;;9.97;100.00;100321.97;5033124;28;20057;-53
2021/10/20 03:23:21;;;;;;;17.50;11.95;;;;;;;9.98;100.00;100324.53;5017916;28;20056;-52
2021/10/20 03:25:48;;;;;;;16.45;11.90;;;;;;;9.96;100.00;100321.09;5025198;28;20542;-53
2021/10/20 03:28:14;;;;;;;18.67;12.40;;;;;;;9.99;100.00;100333.34;5024815;28;20064;-53
2021/10/20 03:30:40;;;;;;;20.30;13.77;;;;;;;9.99;100.00;100333.34;5028534;28;20045;-53
2021/10/20 03:33:07;;;;;;;15.70;12.68;;;;;;;9.94;100.00;100328.25;5025040;28;20045;-53
2021/10/20 03:35:33;;;;;;;18.10;13.02;;;;;;;9.90;100.00;100308.19;5042821;28;20049;-53
2021/10/20 03:38:00;;;;;;;17.05;13.52;;;;;;;10.04;100.00;100328.72;5037186;28;20049;-57
2021/10/20 03:40:26;;;;;;;20.52;14.13;;;;;;;10.08;100.00;100323.19;5041989;28;20049;-53
2021/10/20 03:42:53;;;;;;;19.98;13.93;;;;;;;10.00;100.00;100312.13;5023225;28;20049;-53
2021/10/20 03:45:20;;;;;;;15.48;12.88;;;;;;;10.15;100.00;100327.28;5024339;28;20049;-53
2021/10/20 03:47:46;;;;;;;18.27;13.48;;;;;;;10.17;100.00;100329.84;5023603;28;20053;-53
2021/10/20 03:50:13;;;;;;;19.13;13.55;;;;;;;10.12;100.00;100327.41;5026398;28;20063;-53
2021/10/20 03:52:39;;;;;;;18.77;13.45;;;;;;;10.07;100.00;100318.81;5017100;28;20500;-52
2021/10/20 03:55:06;;;;;;;19.98;13.63;;;;;;;10.09;100.00;100311.69;5023073;28;20721;-53
2021/10/20 03:57:37;;;;;;;20.25;14.43;;;;;;;10.07;100.00;100318.00;5023696;28;20457;-53
2021/10/20 04:00:10;;;;;;;18.48;13.63;;;;;;;10.01;100.00;100310.31;5029177;28;20467;-52
2021/10/20 04:02:42;;;;;;;22.67;15.05;;;;;;;9.99;100.00;100320.97;5021428;28;20049;-53
2021/10/20 04:05:16;;;;;;;16.55;13.27;;;;;;;9.94;100.00;100317.66;5025279;28;20749;-53
2021/10/20 04:07:44;;;;;;;17.88;13.73;;;;;;;9.93;100.00;100308.03;5025164;28;20048;-53
2021/10/20 04:10:13;;;;;;;19.50;13.85;;;;;;;9.91;100.00;100295.81;5008799;28;20793;-53
2021/10/20 04:12:40;;;;;;;18.13;13.33;;;;;;;9.90;100.00;100299.38;5022456;28;20048;-54
2021/10/20 04:15:08;;;;;;;17.10;13.57;;;;;;;9.91;100.00;100296.69;5022642;28;20040;-53
2021/10/20 04:17:34;;;;;;;18.70;12.93;;;;;;;9.89;100.00;100295.88;5023603;28;20054;-52
2021/10/20 04:20:01;;;;;;;17.77;12.43;;;;;;;9.89;100.00;100290.59;5019788;28;20052;-52
2021/10/20 04:22:27;;;;;;;17.67;12.40;;;;;;;9.88;100.00;100290.66;5017221;28;20052;-52
2021/10/20 04:24:54;;;;;;;16.08;12.63;;;;;;;9.88;100.00;100293.31;5028568;28;20061;-54
2021/10/20 04:27:20;;;;;;;15.98;12.48;;;;;;;9.88;100.00;100294.16;5025898;28;20048;-53
2021/10/20 04:29:47;;;;;;;18.13;12.50;;;;;;;9.88;100.00;100295.94;5023472;28;20137;-53
2021/10/20 04:32:13;;;;;;;15.40;11.50;;;;;;;9.88;100.00;100298.59;5017114;28;20057;-53
2021/10/20 04:34:40;;;;;;;15.02;11.75;;;;;;;9.92;100.00;100297.50;5024286;28;20080;-53
2021/10/20 04:37:06;;;;;;;16.13;12.00;;;;;;;9.94;100.00;100300.94;5024796;28;20053;-53
2021/10/20 04:39:33;;;;;;;17.45;12.07;;;;;;;9.89;100.00;100303.81;5025936;28;20064;-53
2021/10/20 04:41:59;;;;;;;15.20;11.68;;;;;;;9.88;100.00;100311.81;5031293;28;20501;-53
2021/10/20 04:44:26;;;;;;;19.10;12.25;;;;;;;9.88;100.00;100303.88;5025826;28;20049;-53
2021/10/20 04:46:52;;;;;;;16.40;11.60;;;;;;;9.91;100.00;100301.09;5028511;28;20528;-53
2021/10/20 04:49:19;;;;;;;17.95;11.95;;;;;;;9.92;100.00;100305.44;5019310;28;20498;-52
2021/10/20 04:51:45;;;;;;;17.15;10.93;;;;;;;9.91;100.00;100306.41;5018486;28;20046;-54
2021/10/20 04:54:12;;;;;;;15.65;11.63;;;;;;;9.91;100.00;100298.47;5018890;28;20045;-53
2021/10/20 04:56:38;;;;;;;14.10;11.35;;;;;;;9.90;100.00;100292.31;5019358;28;22653;-53
2021/10/20 04:59:05;;;;;;;15.13;10.95;;;;;;;9.91;100.00;100288.75;5026875;28;20068;-56
2021/10/20 05:01:31;;;;;;;13.95;11.05;;;;;;;9.92;100.00;100271.06;5023578;28;20060;-53
2021/10/20 05:03:59;;;;;;;15.05;11.30;;;;;;;9.83;100.00;100256.47;5018002;28;20067;-53
2021/10/20 05:06:25;;;;;;;14.90;11.05;;;;;;;9.92;100.00;100265.75;5021007;28;20056;-52
2021/10/20 05:08:51;;;;;;;17.83;10.88;;;;;;;9.97;100.00;100271.72;5016651;28;20722;-52
2021/10/20 05:11:18;;;;;;;16.30;11.18;;;;;;;9.97;100.00;100269.91;5019576;28;20058;-53
2021/10/20 05:13:44;;;;;;;14.63;10.65;;;;;;;9.83;100.00;100235.31;5015085;28;20430;-53
2021/10/20 05:16:11;;;;;;;16.42;11.15;;;;;;;10.02;100.00;100261.78;5029644;28;20051;-53
2021/10/20 05:18:38;;;;;;;13.43;10.35;;;;;;;10.05;100.00;100253.72;5026742;28;20045;-53
2021/10/20 05:21:04;;;;;;;13.32;10.45;;;;;;;10.04;100.00;100241.41;5023073;28;20056;-53
2021/10/20 05:23:31;;;;;;;18.38;10.90;;;;;;;9.90;100.00;100207.69;5014156;28;20049;-53
2021/10/20 05:25:57;;;;;;;14.02;10.75;;;;;;;10.02;100.00;100227.38;5028990;28;20045;-53
2021/10/20 05:28:24;;;;;;;15.73;10.98;;;;;;;10.00;100.00;100226.59;5030902;28;20059;-53
2021/10/20 05:30:50;;;;;;;16.33;10.95;;;;;;;9.98;100.00;100218.72;5023841;28;20037;-53
2021/10/20 05:33:17;;;;;;;15.90;10.77;;;;;;;9.87;100.00;100194.59;5023006;28;20080;-53
2021/10/20 05:35:43;;;;;;;14.82;9.98;;;;;;;9.97;100.00;100210.88;5030009;28;20052;-54
2021/10/20 05:38:10;;;;;;;15.20;10.45;;;;;;;9.97;100.00;100211.72;5024503;28;20053;-54
2021/10/20 05:40:36;;;;;;;15.48;10.60;;;;;;;9.96;100.00;100202.06;5020746;28;20406;-53
2021/10/20 05:43:03;;;;;;;14.48;11.48;;;;;;;9.94;100.00;100196.00;5022448;28;22343;-53
2021/10/20 05:45:29;;;;;;;15.07;10.50;;;;;;;10.01;100.00;100201.88;5029190;28;20052;-53
2021/10/20 05:47:56;;;;;;;14.10;10.90;;;;;;;10.02;100.00;100209.72;5032400;28;20077;-52
2021/10/20 05:50:23;;;;;;;16.80;10.70;;;;;;;10.07;100.00;100206.88;5026865;28;20442;-52
2021/10/20 05:52:49;;;;;;;13.88;9.82;;;;;;;10.07;100.00;100202.41;5022023;28;20809;-52
2021/10/20 05:55:16;;;;;;;18.92;9.98;;;;;;;10.10;100.00;100191.69;5026385;28;20049;-52
2021/10/20 05:57:43;;;;;;;13.57;10.23;;;;;;;10.15;100.00;100189.69;5025472;28;20525;-53
2021/10/20 06:00:12;;;;;;;17.17;11.13;;;;;;;10.18;100.00;100205.47;5028775;28;20157;-52
2021/10/20 06:02:39;;;;;;;14.88;10.07;;;;;;;10.19;100.00;100191.28;5018027;28;20049;-52
2021/10/20 06:05:07;;;;;;;12.18;9.43;;;;;;;10.21;100.00;100212.41;5031421;28;20140;-53
2021/10/20 06:07:41;;;;;;;13.40;10.18;;;;;;;10.22;100.00;100210.59;5025235;28;20534;-53
2021/10/20 06:10:08;;;;;;;15.30;10.23;;;;;;;10.19;100.00;100204.53;5037655;28;20072;-53
2021/10/20 06:12:34;;;;;;;13.55;9.73;;;;;;;10.17;100.00;100201.06;5025626;28;20050;-52
2021/10/20 06:15:02;;;;;;;17.95;10.93;;;;;;;10.31;100.00;100210.16;5030031;28;20060;-54
2021/10/20 06:17:28;;;;;;;13.90;10.77;;;;;;;10.34;100.00;100207.34;5029328;28;20060;-53
2021/10/20 06:19:54;;;;;;;15.05;11.02;;;;;;;10.34;100.00;100204.72;5040547;28;20045;-52
2021/10/20 06:22:21;;;;;;;17.55;11.60;;;;;;;10.30;100.00;100188.13;5023683;28;20677;-53
2021/10/20 06:24:47;;;;;;;15.63;11.18;;;;;;;10.30;100.00;100176.66;5025595;28;20060;-51
2021/10/20 06:27:14;;;;;;;15.25;11.40;;;;;;;10.35;100.00;100177.31;5027986;28;20049;-54
2021/10/20 06:29:41;;;;;;;18.92;11.50;;;;;;;10.37;100.00;100171.00;5027907;28;20048;-53
2021/10/20 06:32:07;;;;;;;15.20;10.80;;;;;;;10.44;100.00;100168.91;5025545;28;20503;-53
2021/10/20 06:34:34;;;;;;;15.85;11.82;;;;;;;10.56;100.00;100170.91;5026668;28;20053;-53
2021/10/20 06:37:01;;;;;;;15.88;11.40;;;;;;;10.67;100.00;100173.91;5023900;28;20037;-53
2021/10/20 06:39:28;;;;;;;14.50;10.20;;;;;;;10.64;100.00;100159.97;5029579;28;20057;-52
2021/10/20 06:41:55;;;;;;;15.25;11.18;;;;;;;10.79;100.00;100162.69;5023225;28;20060;-54
2021/10/20 06:44:21;;;;;;;15.75;11.23;;;;;;;10.83;100.00;100161.59;5024509;28;20414;-53
2021/10/20 06:46:48;;;;;;;16.35;10.52;;;;;;;10.89;100.00;100158.59;5027462;28;20052;-52
2021/10/20 06:49:15;;;;;;;19.80;11.93;;;;;;;10.93;100.00;100146.06;5024788;28;20048;-53
2021/10/20 06:51:41;;;;;;;15.80;11.63;;;;;;;11.02;100.00;100152.69;5027493;28;20082;-53
2021/10/20 06:54:08;;;;;;;15.65;10.40;;;;;;;11.05;100.00;100149.84;5020957;28;20064;-53
2021/10/20 06:56:34;;;;;;;15.43;10.40;;;;;;;11.04;100.00;100154.31;5021315;28;20068;-53
2021/10/20 06:59:01;;;;;;;17.13;11.18;;;;;;;11.04;100.00;100164.03;5025298;28;20052;-52
2021/10/20 07:01:27;;;;;;;15.60;11.02;;;;;;;11.02;100.00;100155.34;5013512;28;20061;-51
2021/10/20 07:03:54;;;;;;;16.73;11.25;;;;;;;11.00;100.00;100154.56;5014425;28;20052;-51
2021/10/20 07:06:26;;;;;;;15.50;10.77;;;;;;;11.03;100.00;100157.03;5024014;28;20049;-51
2021/10/20 07:08:52;;;;;;;14.85;10.43;;;;;;;11.04;100.00;100158.75;5021266;28;20056;-52
2021/10/20 07:11:19;;;;;;;16.95;11.32;;;;;;;11.07;100.00;100148.84;5015778;28;20083;-53
2021/10/20 07:13:45;;;;;;;18.40;10.98;;;;;;;11.13;100.00;100145.03;5014968;28;20095;-52
2021/10/20 07:16:12;;;;;;;14.23;10.30;;;;;;;11.24;100.00;100151.47;5016277;28;20060;-52
2021/10/20 07:18:38;;;;;;;14.88;10.82;;;;;;;11.30;100.00;100158.22;5018190;28;20048;-53
2021/10/20 07:21:05;;;;;;;15.10;10.20;;;;;;;11.36;99.84;100147.28;5020523;28;20041;-52
2021/10/20 07:23:31;;;;;;;16.15;11.10;;;;;;;11.38;99.31;100155.16;5015707;28;20078;-52
2021/10/20 07:25:58;;;;;;;13.00;9.57;;;;;;;11.37;99.50;100172.84;5022916;28;21253;-51
2021/10/20 07:28:24;;;;;;;14.13;10.30;;;;;;;11.38;100.00;100169.28;5019995;28;20056;-52
2021/10/20 07:30:51;;;;;;;13.10;10.60;;;;;;;11.41;99.88;100177.06;5024944;28;20041;-53
2021/10/20 07:33:18;;;;;;;15.45;11.00;;;;;;;11.45;100.00;100173.31;5011222;28;20063;-52
2021/10/20 07:35:44;;;;;;;14.52;10.45;;;;;;;11.50;100.00;100176.56;5024447;28;20050;-52
2021/10/20 07:38:11;;;;;;;16.52;11.40;;;;;;;11.61;100.00;100183.94;5014602;28;20051;-51
2021/10/20 07:40:37;;;;;;;14.98;10.90;;;;;;;11.70;99.83;100156.91;5023335;28;20048;-52
2021/10/20 07:43:04;;;;;;;15.05;10.15;;;;;;;11.83;99.71;100159.75;5018418;28;20049;-52
2021/10/20 07:45:30;;;;;;;12.75;10.70;;;;;;;11.96;97.99;100166.13;5017813;28;20301;-52
2021/10/20 07:47:57;;;;;;;16.10;9.63;;;;;;;12.08;98.53;100162.75;5015026;28;20521;-52
2021/10/20 07:50:23;;;;;;;14.80;10.57;;;;;;;12.11;97.55;100162.59;5020598;28;20041;-51
2021/10/20 07:52:51;;;;;;;13.13;9.75;;;;;;;12.14;96.94;100159.75;5012482;28;20059;-51
2021/10/20 07:55:21;;;;;;;14.10;10.23;;;;;;;12.17;96.51;100164.88;5018726;28;20709;-51
2021/10/20 07:57:52;;;;;;;13.63;8.98;;;;;;;12.20;96.69;100146.13;5022249;28;20048;-54
2021/10/20 08:00:20;;;;;;;13.63;10.02;;;;;;;12.25;97.37;100146.72;5019414;28;20089;-52
2021/10/20 08:02:47;;;;;;;13.77;9.85;;;;;;;12.32;96.63;100146.34;5017202;28;20068;-52
2021/10/20 08:05:14;;;;;;;13.32;9.77;;;;;;;12.39;96.76;100129.13;5016533;28;20056;-53
2021/10/20 08:07:45;;;;;;;14.75;9.98;;;;;;;12.50;97.23;100116.94;5016767;28;20059;-51
2021/10/20 08:10:16;;;;;;;14.55;10.30;;;;;;;12.69;99.54;100121.16;5017281;28;20063;-52
2021/10/20 08:12:43;;;;;;;15.27;10.85;;;;;;;12.81;95.46;100133.69;5009778;28;20049;-51
2021/10/20 08:15:12;;;;;;;17.08;10.45;;;;;;;12.93;96.60;100101.91;5018246;28;20053;-55
2021/10/20 08:17:41;;;;;;;16.40;9.93;;;;;;;13.02;97.31;100091.66;5015480;28;20074;-52
2021/10/20 08:20:10;;;;;;;12.27;9.93;;;;;;;13.23;95.81;100100.97;5014332;28;20548;-52
2021/10/20 08:22:38;;;;;;;11.00;9.40;;;;;;;13.35;93.34;100081.63;5013828;28;20396;-53
2021/10/20 08:25:05;;;;;;;13.27;9.57;;;;;;;13.37;91.19;100055.78;5011801;28;20048;-51
2021/10/20 08:27:32;;;;;;;13.40;9.80;;;;;;;13.40;91.29;100060.88;5020908;28;20056;-54
2021/10/20 08:29:59;;;;;;;15.23;9.75;;;;;;;13.36;90.94;100029.28;5019763;28;20048;-52
2021/10/20 08:32:26;;;;;;;11.50;9.05;;;;;;;13.51;90.43;100039.78;5025739;28;20509;-56
2021/10/20 08:34:52;;;;;;;13.20;9.25;;;;;;;13.56;90.16;100068.75;5013394;28;20049;-52
2021/10/20 08:37:19;;;;;;;14.48;9.00;;;;;;;13.60;90.09;100052.47;5022194;28;20059;-52
2021/10/20 08:39:46;;;;;;;11.40;8.75;;;;;;;13.60;90.55;100048.97;5012807;28;20049;-53
2021/10/20 08:42:13;;;;;;;15.15;9.48;;;;;;;13.64;89.59;100067.31;5024693;28;20041;-53
2021/10/20 08:44:59;;;;;;;13.20;9.13;;;;;;;13.64;89.07;100082.41;5020024;28;20592;-53
2021/10/20 08:47:28;;;;;;;14.05;9.32;;;;;;;13.60;90.26;100084.41;5022540;28;20052;-53
2021/10/20 08:49:55;;;;;;;12.57;9.38;;;;;;;13.61;90.92;100062.19;5019152;28;20334;-51
2021/10/20 08:52:22;;;;;;;16.63;9.20;;;;;;;13.65;91.27;100063.69;5020751;28;20045;-52
2021/10/20 08:54:48;;;;;;;15.02;9.57;;;;;;;13.70;91.46;100061.56;5016871;28;20064;-52
2021/10/20 08:57:14;;;;;;;13.52;10.00;;;;;;;13.76;91.68;100065.66;5016723;28;20045;-51
2021/10/20 08:59:41;;;;;;;10.65;9.55;;;;;;;13.87;90.68;100068.44;5018284;28;20601;-53
2021/10/20 09:02:07;;;;;;;15.43;9.45;;;;;;;13.89;90.00;100063.03;5008023;28;20376;-53
2021/10/20 09:04:35;;;;;;;15.73;9.32;;;;;;;13.83;90.59;100034.19;5006188;28;20044;-52
2021/10/20 09:07:11;;;;;;;12.05;8.93;;;;;;;13.96;90.56;100067.00;5009596;28;20056;-52
2021/10/20 09:09:38;;;;;;;13.73;9.10;;;;;;;14.04;90.73;100073.53;5014826;28;20053;-52
2021/10/20 09:12:04;;;;;;;12.35;9.63;;;;;;;13.90;90.57;100024.81;5018650;28;20051;-53
2021/10/20 09:14:31;;;;;;;12.32;10.38;;;;;;;14.06;90.28;100046.78;5015312;28;23742;-52
2021/10/20 09:17:02;;;;;;;15.00;10.52;;;;;;;14.09;89.74;100051.06;5034912;28;20076;-54
2021/10/20 09:19:34;;;;;;;11.85;9.55;;;;;;;14.20;89.84;100024.56;5022165;28;20232;-52
2021/10/20 09:22:08;;;;;;;14.32;9.57;;;;;;;14.28;89.44;100019.59;5015595;28;20821;-51
2021/10/20 09:24:37;;;;;;;15.88;9.48;;;;;;;14.43;89.93;100009.72;5005490;28;20053;-52
2021/10/20 09:27:16;;;;;;;11.18;8.70;;;;;;;14.55;88.18;100004.38;5037097;28;20084;-52
2021/10/20 09:29:43;;;;;;;13.85;9.60;;;;;;;14.64;88.56;100013.53;5030641;28;20056;-52
2021/10/20 09:32:09;;;;;;;11.77;9.15;;;;;;;14.73;87.05;100026.25;5038839;28;20048;-52
2021/10/20 09:34:37;;;;;;;13.85;9.77;;;;;;;14.76;87.55;100009.19;5019910;28;20049;-52
2021/10/20 09:37:05;;;;;;;12.73;9.00;;;;;;;14.78;87.40;100008.13;5021816;28;20272;-54
2021/10/20 09:39:33;;;;;;;12.00;9.05;;;;;;;14.76;87.63;100003.84;5033933;28;20156;-52
2021/10/20 09:42:11;;;;;;;12.38;8.60;;;;;;;14.81;88.11;99991.88;5036035;28;20049;-52
2021/10/20 09:44:52;;;;;;;14.43;8.63;;;;;;;14.92;87.18;99996.47;5026017;28;20049;-51
2021/10/20 09:47:24;;;;;;;9.95;8.02;;;;;;;15.01;87.19;99991.34;5033863;28;20041;-52
2021/10/20 09:49:56;;;;;;;12.48;8.68;;;;;;;15.15;86.42;99990.34;5027263;28;20044;-53
2021/10/20 09:52:25;;;;;;;11.07;7.72;;;;;;;15.34;84.82;99984.53;5029572;28;20510;-53
2021/10/20 09:54:52;;;;;;;11.93;8.48;;;;;;;15.48;83.80;99979.03;5025883;28;20372;-51
2021/10/20 09:57:29;;;;;;;10.57;7.65;;;;;;;15.57;83.02;99989.06;5042343;28;20497;-51
2021/10/20 09:59:56;;;;;;;10.13;7.28;;;;;;;15.58;82.77;99980.09;5033920;28;20592;-51
2021/10/20 10:02:24;;;;;;;11.75;7.82;;;;;;;15.67;82.71;99962.53;5034628;28;20054;-53
2021/10/20 10:04:51;;;;;;;11.68;7.20;;;;;;;15.81;81.86;99961.50;5020004;28;20063;-52
2021/10/20 10:07:17;;;;;;;9.00;7.07;;;;;;;15.95;81.08;99953.28;5023442;28;20058;-53
2021/10/20 10:09:44;;;;;;;7.93;6.68;;;;;;;16.21;79.56;99949.50;5036007;28;20052;-53
2021/10/20 10:12:15;;;;;;;8.43;6.30;;;;;;;16.36;78.31;99952.78;5035975;28;20041;-54
2021/10/20 10:14:47;;;;;;;11.55;7.18;;;;;;;16.47;77.30;99960.81;5020544;28;20072;-52
2021/10/20 10:17:17;;;;;;;10.02;6.82;;;;;;;16.46;77.53;99965.31;5039451;28;20430;-53
2021/10/20 10:19:45;;;;;;;10.48;6.95;;;;;;;16.44;77.02;99951.22;5028576;28;20506;-52
2021/10/20 10:22:29;;;;;;;8.60;6.60;;;;;;;16.43;77.13;99945.97;5035459;28;20060;-51
2021/10/20 10:25:00;;;;;;;10.85;7.03;;;;;;;16.46;76.66;99941.25;5021819;28;20052;-52
2021/10/20 10:27:29;;;;;;;9.40;6.80;;;;;;;16.48;76.50;99931.28;5028353;28;20075;-51
2021/10/20 10:30:00;;;;;;;8.38;6.40;;;;;;;16.55;75.65;99931.66;5032442;28;20512;-51
2021/10/20 10:32:46;;;;;;;9.30;6.55;;;;;;;16.48;76.01;99928.63;5036652;28;20052;-53
2021/10/20 10:35:13;;;;;;;8.90;5.63;;;;;;;16.42;76.50;99921.06;5033332;28;20076;-52
2021/10/20 10:37:39;;;;;;;12.80;6.78;;;;;;;16.29;77.12;99919.50;5037900;28;20042;-52
2021/10/20 10:40:23;;;;;;;7.57;6.20;;;;;;;16.29;77.14;99931.03;5042775;28;20053;-52
2021/10/20 10:42:50;;;;;;;8.52;5.95;;;;;;;16.24;76.80;99927.00;5037668;28;20048;-52
2021/10/20 10:45:21;;;;;;;10.57;6.45;;;;;;;16.11;78.10;99919.94;5027629;28;20519;-53
2021/10/20 10:48:08;;;;;;;7.55;6.10;;;;;;;15.90;79.10;99896.72;5031438;28;20042;-52
2021/10/20 10:50:40;;;;;;;8.43;5.97;;;;;;;15.93;79.42;99910.69;5036038;28;20045;-52
2021/10/20 10:53:07;;;;;;;7.47;6.15;;;;;;;15.98;78.97;99916.53;5032218;28;20055;-54
2021/10/20 10:55:34;;;;;;;8.25;6.05;;;;;;;16.11;78.71;99906.59;5031245;28;20521;-53
2021/10/20 10:58:02;;;;;;;7.97;6.40;;;;;;;16.26;78.25;99901.88;5040713;28;20040;-50
2021/10/20 11:00:44;;;;;;;10.13;6.18;;;;;;;16.36;78.38;99897.53;5042878;28;20055;-54
2021/10/20 11:03:13;;;;;;;10.20;6.50;;;;;;;16.42;77.61;99875.66;5028059;28;20064;-51
2021/10/20 11:05:48;;;;;;;8.95;6.40;;;;;;;16.46;78.48;99871.78;5025758;28;20052;-52
2021/10/20 11:08:15;;;;;;;9.45;6.13;;;;;;;16.52;78.35;99862.41;5035548;28;20060;-52
2021/10/20 11:10:43;;;;;;;9.55;6.47;;;;;;;16.55;77.77;99847.94;5044922;28;20082;-53
2021/10/20 11:13:13;;;;;;;8.63;6.30;;;;;;;16.63;77.11;99841.03;5036160;28;20053;-53